sensor_id;sensor_type;location;lat;lon;timestamp;P1;durP1;ratioP1;P2;durP2;ratioP2
27013;SDS011;14556;52.222;4.510;2023-04-06T00:02:07;39.30;;;19.87;;
27013;SDS011;14556;52.222;4.510;2023-04-06T00:04:34;42.37;;;19.50;;
27013;SDS011;14556;52.222;4.510;2023-04-06T00:07:00;41.03;;;19.87;;
27013;SDS011;14556;52.222;4.510;2023-04-06T00:09:27;44.63;;;20.00;;
27013;SDS011;14556;52.222;4.510;2023-04-06T00:11:53;38.90;;;18.33;;
27013;SDS011;14556;52.222;4.510;2023-04-06T00:14:20;38.00;;;20.33;;
27013;SDS011;14556;52.222;4.510;2023-04-06T00:16:46;39.43;;;19.27;;
27013;SDS011;14556;52.222;4.510;2023-04-06T00:19:13;37.53;;;19.03;;
27013;SDS011;14556;52.222;4.510;2023-04-06T00:21:39;37.77;;;18.13;;
27013;SDS011;14556;52.222;4.510;2023-04-06T00:24:05;38.50;;;17.40;;
27013;SDS011;14556;52.222;4.510;2023-04-06T00:26:32;38.70;;;18.17;;
27013;SDS011;14556;52.222;4.510;2023-04-06T00:28:58;38.17;;;18.03;;
27013;SDS011;14556;52.222;4.510;2023-04-06T00:31:25;37.20;;;19.30;;
27013;SDS011;14556;52.222;4.510;2023-04-06T00:33:51;37.33;;;19.23;;
27013;SDS011;14556;52.222;4.510;2023-04-06T00:36:18;38.10;;;18.23;;
27013;SDS011;14556;52.222;4.510;2023-04-06T00:38:44;33.67;;;16.60;;
27013;SDS011;14556;52.222;4.510;2023-04-06T00:41:11;34.13;;;16.57;;
27013;SDS011;14556;52.222;4.510;2023-04-06T00:43:37;33.70;;;17.27;;
27013;SDS011;14556;52.222;4.510;2023-04-06T00:46:04;32.50;;;17.77;;
27013;SDS011;14556;52.222;4.510;2023-04-06T00:48:30;36.73;;;17.50;;
27013;SDS011;14556;52.222;4.510;2023-04-06T00:50:57;35.40;;;17.67;;
27013;SDS011;14556;52.222;4.510;2023-04-06T00:53:24;32.30;;;16.83;;
27013;SDS011;14556;52.222;4.510;2023-04-06T00:55:50;32.30;;;16.67;;
27013;SDS011;14556;52.222;4.510;2023-04-06T00:58:16;30.40;;;16.27;;
27013;SDS011;14556;52.222;4.510;2023-04-06T01:00:43;29.23;;;14.67;;
27013;SDS011;14556;52.222;4.510;2023-04-06T01:03:09;34.17;;;15.80;;
27013;SDS011;14556;52.222;4.510;2023-04-06T01:05:36;30.87;;;14.93;;
27013;SDS011;14556;52.222;4.510;2023-04-06T01:08:06;31.33;;;15.60;;
27013;SDS011;14556;52.222;4.510;2023-04-06T01:10:33;27.73;;;15.07;;
27013;SDS011;14556;52.222;4.510;2023-04-06T01:13:00;32.60;;;15.17;;
27013;SDS011;14556;52.222;4.510;2023-04-06T01:15:27;29.27;;;15.00;;
27013;SDS011;14556;52.222;4.510;2023-04-06T01:17:54;24.63;;;13.33;;
27013;SDS011;14556;52.222;4.510;2023-04-06T01:20:21;29.17;;;14.33;;
27013;SDS011;14556;52.222;4.510;2023-04-06T01:22:47;23.63;;;12.80;;
27013;SDS011;14556;52.222;4.510;2023-04-06T01:25:15;20.23;;;12.43;;
27013;SDS011;14556;52.222;4.510;2023-04-06T01:27:41;23.07;;;12.70;;
27013;SDS011;14556;52.222;4.510;2023-04-06T01:30:08;20.60;;;10.90;;
27013;SDS011;14556;52.222;4.510;2023-04-06T01:32:35;21.93;;;11.37;;
27013;SDS011;14556;52.222;4.510;2023-04-06T01:35:01;23.17;;;11.33;;
27013;SDS011;14556;52.222;4.510;2023-04-06T01:37:28;19.30;;;11.13;;
27013;SDS011;14556;52.222;4.510;2023-04-06T01:39:58;19.70;;;10.30;;
27013;SDS011;14556;52.222;4.510;2023-04-06T01:42:25;17.97;;;10.23;;
27013;SDS011;14556;52.222;4.510;2023-04-06T01:44:52;20.63;;;10.80;;
27013;SDS011;14556;52.222;4.510;2023-04-06T01:47:18;24.73;;;10.57;;
27013;SDS011;14556;52.222;4.510;2023-04-06T01:49:45;21.97;;;10.50;;
27013;SDS011;14556;52.222;4.510;2023-04-06T01:52:11;19.63;;;10.07;;
27013;SDS011;14556;52.222;4.510;2023-04-06T01:54:37;20.57;;;10.17;;
27013;SDS011;14556;52.222;4.510;2023-04-06T01:57:04;15.97;;;9.27;;
27013;SDS011;14556;52.222;4.510;2023-04-06T01:59:31;17.37;;;9.40;;
27013;SDS011;14556;52.222;4.510;2023-04-06T02:01:57;18.47;;;8.90;;
27013;SDS011;14556;52.222;4.510;2023-04-06T02:04:23;16.27;;;9.47;;
27013;SDS011;14556;52.222;4.510;2023-04-06T02:06:50;14.33;;;8.27;;
27013;SDS011;14556;52.222;4.510;2023-04-06T02:09:16;16.13;;;9.07;;
27013;SDS011;14556;52.222;4.510;2023-04-06T02:11:43;15.13;;;8.10;;
27013;SDS011;14556;52.222;4.510;2023-04-06T02:14:09;15.37;;;8.37;;
27013;SDS011;14556;52.222;4.510;2023-04-06T02:16:36;17.33;;;8.93;;
27013;SDS011;14556;52.222;4.510;2023-04-06T02:19:02;16.30;;;8.10;;
27013;SDS011;14556;52.222;4.510;2023-04-06T02:21:29;13.30;;;8.33;;
27013;SDS011;14556;52.222;4.510;2023-04-06T02:23:55;19.07;;;9.23;;
27013;SDS011;14556;52.222;4.510;2023-04-06T02:26:22;14.17;;;8.33;;
27013;SDS011;14556;52.222;4.510;2023-04-06T02:28:48;15.93;;;8.13;;
27013;SDS011;14556;52.222;4.510;2023-04-06T02:31:15;14.60;;;8.63;;
27013;SDS011;14556;52.222;4.510;2023-04-06T02:33:42;17.57;;;8.87;;
27013;SDS011;14556;52.222;4.510;2023-04-06T02:36:08;15.73;;;8.53;;
27013;SDS011;14556;52.222;4.510;2023-04-06T02:38:34;15.37;;;8.77;;
27013;SDS011;14556;52.222;4.510;2023-04-06T02:41:01;14.07;;;8.50;;
27013;SDS011;14556;52.222;4.510;2023-04-06T02:43:29;12.43;;;8.57;;
27013;SDS011;14556;52.222;4.510;2023-04-06T02:45:57;11.07;;;7.73;;
27013;SDS011;14556;52.222;4.510;2023-04-06T02:48:23;14.83;;;8.53;;
27013;SDS011;14556;52.222;4.510;2023-04-06T02:50:50;17.13;;;8.90;;
27013;SDS011;14556;52.222;4.510;2023-04-06T02:53:16;18.00;;;9.33;;
27013;SDS011;14556;52.222;4.510;2023-04-06T02:55:43;16.17;;;9.23;;
27013;SDS011;14556;52.222;4.510;2023-04-06T02:58:09;13.33;;;8.37;;
27013;SDS011;14556;52.222;4.510;2023-04-06T03:00:36;16.10;;;8.27;;
27013;SDS011;14556;52.222;4.510;2023-04-06T03:03:03;14.77;;;8.70;;
27013;SDS011;14556;52.222;4.510;2023-04-06T03:05:29;16.33;;;9.23;;
27013;SDS011;14556;52.222;4.510;2023-04-06T03:07:56;15.07;;;8.87;;
27013;SDS011;14556;52.222;4.510;2023-04-06T03:10:23;18.90;;;9.83;;
27013;SDS011;14556;52.222;4.510;2023-04-06T03:12:49;15.60;;;8.63;;
27013;SDS011;14556;52.222;4.510;2023-04-06T03:15:15;14.40;;;9.43;;
27013;SDS011;14556;52.222;4.510;2023-04-06T03:17:42;18.90;;;9.50;;
27013;SDS011;14556;52.222;4.510;2023-04-06T03:20:08;15.30;;;9.10;;
27013;SDS011;14556;52.222;4.510;2023-04-06T03:22:35;17.37;;;8.53;;
27013;SDS011;14556;52.222;4.510;2023-04-06T03:25:01;19.13;;;8.87;;
27013;SDS011;14556;52.222;4.510;2023-04-06T03:27:29;15.37;;;9.03;;
27013;SDS011;14556;52.222;4.510;2023-04-06T03:29:55;18.93;;;10.03;;
27013;SDS011;14556;52.222;4.510;2023-04-06T03:32:22;17.10;;;9.43;;
27013;SDS011;14556;52.222;4.510;2023-04-06T03:34:48;17.70;;;10.43;;
27013;SDS011;14556;52.222;4.510;2023-04-06T03:37:14;18.67;;;10.13;;
27013;SDS011;14556;52.222;4.510;2023-04-06T03:39:41;17.03;;;9.77;;
27013;SDS011;14556;52.222;4.510;2023-04-06T03:42:07;17.00;;;9.20;;
27013;SDS011;14556;52.222;4.510;2023-04-06T03:44:34;22.33;;;9.67;;
27013;SDS011;14556;52.222;4.510;2023-04-06T03:47:01;14.83;;;9.53;;
27013;SDS011;14556;52.222;4.510;2023-04-06T03:49:28;19.23;;;10.07;;
27013;SDS011;14556;52.222;4.510;2023-04-06T03:51:55;15.90;;;9.30;;
27013;SDS011;14556;52.222;4.510;2023-04-06T03:54:22;16.63;;;9.70;;
27013;SDS011;14556;52.222;4.510;2023-04-06T03:56:48;17.90;;;9.73;;
27013;SDS011;14556;52.222;4.510;2023-04-06T03:59:14;18.20;;;10.03;;
27013;SDS011;14556;52.222;4.510;2023-04-06T04:01:41;20.70;;;10.27;;
27013;SDS011;14556;52.222;4.510;2023-04-06T04:04:08;18.77;;;10.07;;
27013;SDS011;14556;52.222;4.510;2023-04-06T04:06:34;19.03;;;10.10;;
27013;SDS011;14556;52.222;4.510;2023-04-06T04:09:02;17.87;;;9.37;;
27013;SDS011;14556;52.222;4.510;2023-04-06T04:11:29;18.53;;;9.73;;
27013;SDS011;14556;52.222;4.510;2023-04-06T04:13:55;15.50;;;9.33;;
27013;SDS011;14556;52.222;4.510;2023-04-06T04:16:22;19.73;;;10.07;;
27013;SDS011;14556;52.222;4.510;2023-04-06T04:18:48;18.27;;;10.67;;
27013;SDS011;14556;52.222;4.510;2023-04-06T04:21:15;18.50;;;9.63;;
27013;SDS011;14556;52.222;4.510;2023-04-06T04:23:41;15.70;;;9.03;;
27013;SDS011;14556;52.222;4.510;2023-04-06T04:26:07;19.70;;;10.37;;
27013;SDS011;14556;52.222;4.510;2023-04-06T04:28:34;17.73;;;9.70;;
27013;SDS011;14556;52.222;4.510;2023-04-06T04:31:00;17.57;;;9.37;;
27013;SDS011;14556;52.222;4.510;2023-04-06T04:33:27;17.90;;;9.77;;
27013;SDS011;14556;52.222;4.510;2023-04-06T04:35:54;18.57;;;10.33;;
27013;SDS011;14556;52.222;4.510;2023-04-06T04:38:21;17.13;;;10.47;;
27013;SDS011;14556;52.222;4.510;2023-04-06T04:40:47;19.13;;;9.70;;
27013;SDS011;14556;52.222;4.510;2023-04-06T04:43:14;17.93;;;10.33;;
27013;SDS011;14556;52.222;4.510;2023-04-06T04:45:40;21.57;;;10.80;;
27013;SDS011;14556;52.222;4.510;2023-04-06T04:48:07;19.73;;;10.87;;
27013;SDS011;14556;52.222;4.510;2023-04-06T04:50:34;16.33;;;10.17;;
27013;SDS011;14556;52.222;4.510;2023-04-06T04:53:01;18.70;;;10.60;;
27013;SDS011;14556;52.222;4.510;2023-04-06T04:55:27;18.97;;;10.63;;
27013;SDS011;14556;52.222;4.510;2023-04-06T04:57:55;20.27;;;10.53;;
27013;SDS011;14556;52.222;4.510;2023-04-06T05:00:21;19.10;;;11.30;;
27013;SDS011;14556;52.222;4.510;2023-04-06T05:02:48;20.33;;;10.33;;
27013;SDS011;14556;52.222;4.510;2023-04-06T05:05:14;19.70;;;11.30;;
27013;SDS011;14556;52.222;4.510;2023-04-06T05:07:41;26.00;;;10.90;;
27013;SDS011;14556;52.222;4.510;2023-04-06T05:10:07;21.53;;;10.53;;
27013;SDS011;14556;52.222;4.510;2023-04-06T05:12:34;20.30;;;11.33;;
27013;SDS011;14556;52.222;4.510;2023-04-06T05:15:00;17.57;;;10.60;;
27013;SDS011;14556;52.222;4.510;2023-04-06T05:17:27;20.43;;;12.00;;
27013;SDS011;14556;52.222;4.510;2023-04-06T05:19:54;21.13;;;10.67;;
27013;SDS011;14556;52.222;4.510;2023-04-06T05:22:20;19.20;;;11.30;;
27013;SDS011;14556;52.222;4.510;2023-04-06T05:24:46;19.23;;;10.97;;
27013;SDS011;14556;52.222;4.510;2023-04-06T05:27:13;17.93;;;10.40;;
27013;SDS011;14556;52.222;4.510;2023-04-06T05:29:39;20.87;;;10.83;;
27013;SDS011;14556;52.222;4.510;2023-04-06T05:32:06;19.37;;;11.03;;
27013;SDS011;14556;52.222;4.510;2023-04-06T05:34:32;19.90;;;11.40;;
27013;SDS011;14556;52.222;4.510;2023-04-06T05:36:59;19.37;;;11.03;;
27013;SDS011;14556;52.222;4.510;2023-04-06T05:39:25;24.00;;;11.37;;
27013;SDS011;14556;52.222;4.510;2023-04-06T05:41:52;21.50;;;10.87;;
27013;SDS011;14556;52.222;4.510;2023-04-06T05:44:18;20.33;;;10.80;;
27013;SDS011;14556;52.222;4.510;2023-04-06T05:46:45;23.40;;;11.43;;
27013;SDS011;14556;52.222;4.510;2023-04-06T05:49:11;19.33;;;10.70;;
27013;SDS011;14556;52.222;4.510;2023-04-06T05:51:38;21.03;;;11.77;;
27013;SDS011;14556;52.222;4.510;2023-04-06T05:54:04;17.33;;;10.87;;
27013;SDS011;14556;52.222;4.510;2023-04-06T05:56:31;22.17;;;12.20;;
27013;SDS011;14556;52.222;4.510;2023-04-06T05:58:58;23.00;;;11.63;;
27013;SDS011;14556;52.222;4.510;2023-04-06T06:01:24;20.53;;;11.43;;
27013;SDS011;14556;52.222;4.510;2023-04-06T06:03:50;20.37;;;11.40;;
27013;SDS011;14556;52.222;4.510;2023-04-06T06:06:17;24.33;;;11.77;;
27013;SDS011;14556;52.222;4.510;2023-04-06T06:08:43;23.03;;;13.23;;
27013;SDS011;14556;52.222;4.510;2023-04-06T06:11:10;22.83;;;11.83;;
27013;SDS011;14556;52.222;4.510;2023-04-06T06:13:37;24.23;;;12.23;;
27013;SDS011;14556;52.222;4.510;2023-04-06T06:16:04;22.23;;;12.43;;
27013;SDS011;14556;52.222;4.510;2023-04-06T06:18:31;25.13;;;12.30;;
27013;SDS011;14556;52.222;4.510;2023-04-06T06:20:58;24.87;;;12.77;;
27013;SDS011;14556;52.222;4.510;2023-04-06T06:23:24;22.17;;;12.70;;
27013;SDS011;14556;52.222;4.510;2023-04-06T06:25:52;23.67;;;11.33;;
27013;SDS011;14556;52.222;4.510;2023-04-06T06:28:18;20.50;;;11.87;;
27013;SDS011;14556;52.222;4.510;2023-04-06T06:30:45;23.67;;;12.23;;
27013;SDS011;14556;52.222;4.510;2023-04-06T06:33:12;24.63;;;11.77;;
27013;SDS011;14556;52.222;4.510;2023-04-06T06:35:38;23.03;;;12.27;;
27013;SDS011;14556;52.222;4.510;2023-04-06T06:38:05;21.63;;;11.33;;
27013;SDS011;14556;52.222;4.510;2023-04-06T06:40:32;22.43;;;12.27;;
27013;SDS011;14556;52.222;4.510;2023-04-06T06:42:59;22.70;;;12.57;;
27013;SDS011;14556;52.222;4.510;2023-04-06T06:45:25;28.43;;;13.30;;
27013;SDS011;14556;52.222;4.510;2023-04-06T06:47:53;20.90;;;11.90;;
27013;SDS011;14556;52.222;4.510;2023-04-06T06:50:21;28.43;;;12.87;;
27013;SDS011;14556;52.222;4.510;2023-04-06T06:52:47;25.37;;;13.00;;
27013;SDS011;14556;52.222;4.510;2023-04-06T06:55:14;23.27;;;12.20;;
27013;SDS011;14556;52.222;4.510;2023-04-06T06:57:41;24.10;;;12.40;;
27013;SDS011;14556;52.222;4.510;2023-04-06T07:00:09;26.60;;;13.40;;
27013;SDS011;14556;52.222;4.510;2023-04-06T07:02:38;26.83;;;13.97;;
27013;SDS011;14556;52.222;4.510;2023-04-06T07:05:05;22.53;;;11.60;;
27013;SDS011;14556;52.222;4.510;2023-04-06T07:07:49;29.20;;;13.97;;
27013;SDS011;14556;52.222;4.510;2023-04-06T07:10:15;25.33;;;13.43;;
27013;SDS011;14556;52.222;4.510;2023-04-06T07:12:42;27.20;;;14.07;;
27013;SDS011;14556;52.222;4.510;2023-04-06T07:15:08;26.73;;;14.13;;
27013;SDS011;14556;52.222;4.510;2023-04-06T07:17:35;28.23;;;13.60;;
27013;SDS011;14556;52.222;4.510;2023-04-06T07:20:01;29.07;;;14.77;;
27013;SDS011;14556;52.222;4.510;2023-04-06T07:22:28;32.57;;;15.13;;
27013;SDS011;14556;52.222;4.510;2023-04-06T07:24:55;25.97;;;14.73;;
27013;SDS011;14556;52.222;4.510;2023-04-06T07:27:22;30.67;;;15.33;;
27013;SDS011;14556;52.222;4.510;2023-04-06T07:29:48;28.10;;;14.27;;
27013;SDS011;14556;52.222;4.510;2023-04-06T07:32:14;31.47;;;15.57;;
27013;SDS011;14556;52.222;4.510;2023-04-06T07:34:41;32.87;;;15.50;;
27013;SDS011;14556;52.222;4.510;2023-04-06T07:37:07;30.23;;;15.53;;
27013;SDS011;14556;52.222;4.510;2023-04-06T07:39:34;37.30;;;17.60;;
27013;SDS011;14556;52.222;4.510;2023-04-06T07:42:00;33.17;;;16.80;;
27013;SDS011;14556;52.222;4.510;2023-04-06T07:44:27;32.07;;;16.33;;
27013;SDS011;14556;52.222;4.510;2023-04-06T07:46:53;34.37;;;17.97;;
27013;SDS011;14556;52.222;4.510;2023-04-06T07:49:20;34.43;;;16.87;;
27013;SDS011;14556;52.222;4.510;2023-04-06T07:51:47;36.10;;;16.53;;
27013;SDS011;14556;52.222;4.510;2023-04-06T07:54:13;28.57;;;15.20;;
27013;SDS011;14556;52.222;4.510;2023-04-06T07:56:39;29.73;;;16.80;;
27013;SDS011;14556;52.222;4.510;2023-04-06T07:59:06;30.03;;;15.40;;
27013;SDS011;14556;52.222;4.510;2023-04-06T08:01:32;33.00;;;16.93;;
27013;SDS011;14556;52.222;4.510;2023-04-06T08:03:59;31.83;;;16.33;;
27013;SDS011;14556;52.222;4.510;2023-04-06T08:06:28;34.27;;;16.90;;
27013;SDS011;14556;52.222;4.510;2023-04-06T08:08:55;34.33;;;17.67;;
27013;SDS011;14556;52.222;4.510;2023-04-06T08:11:21;37.23;;;17.67;;
27013;SDS011;14556;52.222;4.510;2023-04-06T08:13:48;32.67;;;16.87;;
27013;SDS011;14556;52.222;4.510;2023-04-06T08:16:14;33.20;;;16.93;;
27013;SDS011;14556;52.222;4.510;2023-04-06T08:18:41;35.20;;;17.63;;
27013;SDS011;14556;52.222;4.510;2023-04-06T08:21:07;30.80;;;15.97;;
27013;SDS011;14556;52.222;4.510;2023-04-06T08:23:34;33.07;;;14.83;;
27013;SDS011;14556;52.222;4.510;2023-04-06T08:26:00;37.20;;;17.10;;
27013;SDS011;14556;52.222;4.510;2023-04-06T08:28:27;32.87;;;16.30;;
27013;SDS011;14556;52.222;4.510;2023-04-06T08:30:53;30.87;;;16.50;;
27013;SDS011;14556;52.222;4.510;2023-04-06T08:33:20;27.37;;;14.07;;
27013;SDS011;14556;52.222;4.510;2023-04-06T08:35:46;30.03;;;14.30;;
27013;SDS011;14556;52.222;4.510;2023-04-06T08:38:13;34.73;;;15.80;;
27013;SDS011;14556;52.222;4.510;2023-04-06T08:40:39;29.80;;;15.03;;
27013;SDS011;14556;52.222;4.510;2023-04-06T08:43:06;32.60;;;15.50;;
27013;SDS011;14556;52.222;4.510;2023-04-06T08:45:35;30.60;;;15.03;;
27013;SDS011;14556;52.222;4.510;2023-04-06T08:48:02;31.50;;;15.50;;
27013;SDS011;14556;52.222;4.510;2023-04-06T08:50:32;31.43;;;15.23;;
27013;SDS011;14556;52.222;4.510;2023-04-06T08:52:59;34.10;;;17.23;;
27013;SDS011;14556;52.222;4.510;2023-04-06T08:55:25;32.67;;;16.33;;
27013;SDS011;14556;52.222;4.510;2023-04-06T08:57:52;31.97;;;17.40;;
27013;SDS011;14556;52.222;4.510;2023-04-06T09:00:21;28.47;;;15.30;;
27013;SDS011;14556;52.222;4.510;2023-04-06T09:02:49;28.90;;;14.67;;
27013;SDS011;14556;52.222;4.510;2023-04-06T09:05:15;28.53;;;15.67;;
27013;SDS011;14556;52.222;4.510;2023-04-06T09:07:42;26.30;;;13.67;;
27013;SDS011;14556;52.222;4.510;2023-04-06T09:10:08;25.63;;;13.53;;
27013;SDS011;14556;52.222;4.510;2023-04-06T09:12:35;19.57;;;10.30;;
27013;SDS011;14556;52.222;4.510;2023-04-06T09:15:01;19.10;;;10.50;;
27013;SDS011;14556;52.222;4.510;2023-04-06T09:17:31;22.77;;;12.23;;
27013;SDS011;14556;52.222;4.510;2023-04-06T09:20:03;21.80;;;11.17;;
27013;SDS011;14556;52.222;4.510;2023-04-06T09:22:36;21.23;;;11.90;;
27013;SDS011;14556;52.222;4.510;2023-04-06T09:25:03;20.03;;;11.03;;
27013;SDS011;14556;52.222;4.510;2023-04-06T09:27:33;16.87;;;9.83;;
27013;SDS011;14556;52.222;4.510;2023-04-06T09:30:04;19.70;;;10.33;;
27013;SDS011;14556;52.222;4.510;2023-04-06T09:32:31;15.80;;;8.97;;
27013;SDS011;14556;52.222;4.510;2023-04-06T09:35:07;15.30;;;8.67;;
27013;SDS011;14556;52.222;4.510;2023-04-06T09:37:34;19.87;;;10.17;;
27013;SDS011;14556;52.222;4.510;2023-04-06T09:40:02;19.80;;;9.73;;
27013;SDS011;14556;52.222;4.510;2023-04-06T09:42:28;19.63;;;10.13;;
27013;SDS011;14556;52.222;4.510;2023-04-06T09:44:55;21.13;;;10.27;;
27013;SDS011;14556;52.222;4.510;2023-04-06T09:47:21;19.53;;;8.83;;
27013;SDS011;14556;52.222;4.510;2023-04-06T09:49:54;20.83;;;9.87;;
27013;SDS011;14556;52.222;4.510;2023-04-06T09:52:21;17.87;;;8.80;;
27013;SDS011;14556;52.222;4.510;2023-04-06T09:54:49;18.00;;;10.03;;
27013;SDS011;14556;52.222;4.510;2023-04-06T09:59:55;20.27;;;9.90;;
27013;SDS011;14556;52.222;4.510;2023-04-06T10:04:56;18.77;;;8.30;;
27013;SDS011;14556;52.222;4.510;2023-04-06T10:07:24;13.83;;;8.30;;
27013;SDS011;14556;52.222;4.510;2023-04-06T10:09:52;13.17;;;7.20;;
27013;SDS011;14556;52.222;4.510;2023-04-06T10:12:19;10.50;;;6.23;;
27013;SDS011;14556;52.222;4.510;2023-04-06T10:14:46;17.93;;;7.37;;
27013;SDS011;14556;52.222;4.510;2023-04-06T10:17:13;14.87;;;7.87;;
27013;SDS011;14556;52.222;4.510;2023-04-06T10:22:26;13.27;;;7.60;;
27013;SDS011;14556;52.222;4.510;2023-04-06T10:24:55;12.90;;;7.50;;
27013;SDS011;14556;52.222;4.510;2023-04-06T10:27:28;16.20;;;8.07;;
27013;SDS011;14556;52.222;4.510;2023-04-06T10:30:00;16.97;;;7.73;;
27013;SDS011;14556;52.222;4.510;2023-04-06T10:32:33;15.73;;;7.90;;
27013;SDS011;14556;52.222;4.510;2023-04-06T10:35:08;12.47;;;6.97;;
27013;SDS011;14556;52.222;4.510;2023-04-06T10:38:00;15.30;;;7.03;;
27013;SDS011;14556;52.222;4.510;2023-04-06T10:40:27;14.67;;;7.90;;
27013;SDS011;14556;52.222;4.510;2023-04-06T10:42:54;9.37;;;6.20;;
27013;SDS011;14556;52.222;4.510;2023-04-06T10:45:22;12.87;;;6.70;;
27013;SDS011;14556;52.222;4.510;2023-04-06T10:47:49;11.87;;;7.07;;
27013;SDS011;14556;52.222;4.510;2023-04-06T10:50:18;12.57;;;7.37;;
27013;SDS011;14556;52.222;4.510;2023-04-06T10:52:45;12.03;;;7.23;;
27013;SDS011;14556;52.222;4.510;2023-04-06T10:55:13;13.50;;;7.93;;
27013;SDS011;14556;52.222;4.510;2023-04-06T10:57:40;13.13;;;8.67;;
27013;SDS011;14556;52.222;4.510;2023-04-06T11:00:07;12.60;;;7.30;;
27013;SDS011;14556;52.222;4.510;2023-04-06T11:02:37;12.67;;;7.17;;
27013;SDS011;14556;52.222;4.510;2023-04-06T11:05:04;16.03;;;9.17;;
27013;SDS011;14556;52.222;4.510;2023-04-06T11:07:34;11.53;;;8.17;;
27013;SDS011;14556;52.222;4.510;2023-04-06T11:10:01;17.50;;;9.80;;
27013;SDS011;14556;52.222;4.510;2023-04-06T11:12:30;17.17;;;10.60;;
27013;SDS011;14556;52.222;4.510;2023-04-06T11:15:00;14.43;;;8.90;;
27013;SDS011;14556;52.222;4.510;2023-04-06T11:17:33;15.43;;;9.47;;
27013;SDS011;14556;52.222;4.510;2023-04-06T11:20:00;15.97;;;10.00;;
27013;SDS011;14556;52.222;4.510;2023-04-06T11:22:26;16.47;;;10.03;;
27013;SDS011;14556;52.222;4.510;2023-04-06T11:24:53;15.20;;;9.33;;
27013;SDS011;14556;52.222;4.510;2023-04-06T11:27:30;14.37;;;9.60;;
27013;SDS011;14556;52.222;4.510;2023-04-06T11:29:59;15.03;;;10.00;;
27013;SDS011;14556;52.222;4.510;2023-04-06T11:32:25;16.70;;;9.70;;
27013;SDS011;14556;52.222;4.510;2023-04-06T11:34:52;14.43;;;9.03;;
27013;SDS011;14556;52.222;4.510;2023-04-06T11:37:19;13.63;;;8.60;;
27013;SDS011;14556;52.222;4.510;2023-04-06T11:39:52;13.50;;;8.87;;
27013;SDS011;14556;52.222;4.510;2023-04-06T11:42:24;12.57;;;8.83;;
27013;SDS011;14556;52.222;4.510;2023-04-06T11:44:51;12.23;;;8.60;;
27013;SDS011;14556;52.222;4.510;2023-04-06T11:47:19;14.07;;;8.80;;
27013;SDS011;14556;52.222;4.510;2023-04-06T11:49:46;13.40;;;8.80;;
27013;SDS011;14556;52.222;4.510;2023-04-06T11:52:14;13.80;;;9.10;;
27013;SDS011;14556;52.222;4.510;2023-04-06T11:54:41;12.93;;;9.00;;
27013;SDS011;14556;52.222;4.510;2023-04-06T11:57:07;13.03;;;9.30;;
27013;SDS011;14556;52.222;4.510;2023-04-06T11:59:34;14.60;;;9.77;;
27013;SDS011;14556;52.222;4.510;2023-04-06T12:02:01;16.63;;;9.93;;
27013;SDS011;14556;52.222;4.510;2023-04-06T12:04:28;15.80;;;9.77;;
27013;SDS011;14556;52.222;4.510;2023-04-06T12:06:55;14.33;;;9.43;;
27013;SDS011;14556;52.222;4.510;2023-04-06T12:09:22;15.40;;;8.63;;
27013;SDS011;14556;52.222;4.510;2023-04-06T12:11:48;12.63;;;9.47;;
27013;SDS011;14556;52.222;4.510;2023-04-06T12:14:15;13.00;;;9.03;;
27013;SDS011;14556;52.222;4.510;2023-04-06T12:16:42;15.57;;;9.50;;
27013;SDS011;14556;52.222;4.510;2023-04-06T12:19:08;15.23;;;9.10;;
27013;SDS011;14556;52.222;4.510;2023-04-06T12:21:35;14.33;;;9.63;;
27013;SDS011;14556;52.222;4.510;2023-04-06T12:24:06;13.67;;;8.67;;
27013;SDS011;14556;52.222;4.510;2023-04-06T12:26:33;13.73;;;8.40;;
27013;SDS011;14556;52.222;4.510;2023-04-06T12:28:59;14.40;;;9.07;;
27013;SDS011;14556;52.222;4.510;2023-04-06T12:31:36;14.03;;;9.43;;
27013;SDS011;14556;52.222;4.510;2023-04-06T12:34:05;13.87;;;9.23;;
27013;SDS011;14556;52.222;4.510;2023-04-06T12:36:31;12.30;;;8.10;;
27013;SDS011;14556;52.222;4.510;2023-04-06T12:38:59;13.07;;;9.23;;
27013;SDS011;14556;52.222;4.510;2023-04-06T12:41:29;12.60;;;8.67;;
27013;SDS011;14556;52.222;4.510;2023-04-06T12:43:55;12.10;;;8.20;;
27013;SDS011;14556;52.222;4.510;2023-04-06T12:46:22;14.23;;;8.30;;
27013;SDS011;14556;52.222;4.510;2023-04-06T12:48:49;13.50;;;8.33;;
27013;SDS011;14556;52.222;4.510;2023-04-06T12:51:15;11.27;;;7.80;;
27013;SDS011;14556;52.222;4.510;2023-04-06T12:53:43;14.03;;;8.53;;
27013;SDS011;14556;52.222;4.510;2023-04-06T12:56:11;14.10;;;9.10;;
27013;SDS011;14556;52.222;4.510;2023-04-06T12:58:38;11.67;;;7.97;;
27013;SDS011;14556;52.222;4.510;2023-04-06T13:01:06;13.23;;;8.20;;
27013;SDS011;14556;52.222;4.510;2023-04-06T13:03:33;11.97;;;8.23;;
27013;SDS011;14556;52.222;4.510;2023-04-06T13:06:05;11.97;;;8.13;;
27013;SDS011;14556;52.222;4.510;2023-04-06T13:08:34;12.30;;;7.93;;
27013;SDS011;14556;52.222;4.510;2023-04-06T13:11:02;12.67;;;8.00;;
27013;SDS011;14556;52.222;4.510;2023-04-06T13:13:29;12.80;;;7.40;;
27013;SDS011;14556;52.222;4.510;2023-04-06T13:15:59;14.70;;;7.53;;
27013;SDS011;14556;52.222;4.510;2023-04-06T13:18:27;12.53;;;7.90;;
27013;SDS011;14556;52.222;4.510;2023-04-06T13:20:55;10.50;;;7.40;;
27013;SDS011;14556;52.222;4.510;2023-04-06T13:23:22;12.20;;;7.70;;
27013;SDS011;14556;52.222;4.510;2023-04-06T13:26:05;10.13;;;6.87;;
27013;SDS011;14556;52.222;4.510;2023-04-06T13:28:32;11.67;;;8.10;;
27013;SDS011;14556;52.222;4.510;2023-04-06T13:30:59;12.03;;;7.63;;
27013;SDS011;14556;52.222;4.510;2023-04-06T13:33:26;12.67;;;8.27;;
27013;SDS011;14556;52.222;4.510;2023-04-06T13:35:53;11.90;;;7.27;;
27013;SDS011;14556;52.222;4.510;2023-04-06T13:38:19;11.17;;;7.47;;
27013;SDS011;14556;52.222;4.510;2023-04-06T13:40:46;13.27;;;7.27;;
27013;SDS011;14556;52.222;4.510;2023-04-06T13:43:12;10.60;;;7.23;;
27013;SDS011;14556;52.222;4.510;2023-04-06T13:45:39;11.83;;;6.70;;
27013;SDS011;14556;52.222;4.510;2023-04-06T13:48:06;10.97;;;5.40;;
27013;SDS011;14556;52.222;4.510;2023-04-06T13:50:32;8.20;;;5.77;;
27013;SDS011;14556;52.222;4.510;2023-04-06T13:52:59;9.23;;;6.23;;
27013;SDS011;14556;52.222;4.510;2023-04-06T13:55:25;8.63;;;6.00;;
27013;SDS011;14556;52.222;4.510;2023-04-06T13:57:52;9.30;;;6.23;;
27013;SDS011;14556;52.222;4.510;2023-04-06T14:00:18;8.67;;;5.80;;
27013;SDS011;14556;52.222;4.510;2023-04-06T14:02:45;10.80;;;6.50;;
27013;SDS011;14556;52.222;4.510;2023-04-06T14:05:12;10.00;;;6.53;;
27013;SDS011;14556;52.222;4.510;2023-04-06T14:07:38;8.40;;;6.03;;
27013;SDS011;14556;52.222;4.510;2023-04-06T14:10:05;9.63;;;6.57;;
27013;SDS011;14556;52.222;4.510;2023-04-06T14:12:31;9.00;;;6.10;;
27013;SDS011;14556;52.222;4.510;2023-04-06T14:14:58;10.20;;;6.67;;
27013;SDS011;14556;52.222;4.510;2023-04-06T14:17:24;9.50;;;6.30;;
27013;SDS011;14556;52.222;4.510;2023-04-06T14:19:51;10.13;;;6.90;;
27013;SDS011;14556;52.222;4.510;2023-04-06T14:22:19;10.30;;;6.50;;
27013;SDS011;14556;52.222;4.510;2023-04-06T14:24:45;9.60;;;6.50;;
27013;SDS011;14556;52.222;4.510;2023-04-06T14:27:13;13.07;;;7.37;;
27013;SDS011;14556;52.222;4.510;2023-04-06T14:29:40;10.27;;;7.30;;
27013;SDS011;14556;52.222;4.510;2023-04-06T14:32:06;8.23;;;5.93;;
27013;SDS011;14556;52.222;4.510;2023-04-06T14:34:33;8.53;;;5.70;;
27013;SDS011;14556;52.222;4.510;2023-04-06T14:37:02;9.00;;;6.47;;